DLH806 EDDS-EDDH
Flight info
| Callsign | DLH806 |
|---|---|
| Flight time | 0h 51m |
| Altitude | 35000 |
| Route | OKIBA4B/25 OKIBA N851 RIMKI Z99 LOHRE DCT MASEK DCT ELNAT/N0428F360 P605 NOLGO NOLGO6A |
| Aircraft | A320/M-SDE3FGHIRWY/LB1 |
Departure
| Time | 2026-05-05 18:14 |
|---|---|
| Airport | Stuttgart Airport (EDDS) |
Arrival
| Time | 2026-05-05 19:05 |
|---|---|
| Airport | Hamburg Helmut Schmidt Airport (EDDH) |
| Time | Latitude | Longitude | Altitude | Speed | Heading |
|---|---|---|---|---|---|
| 2026-05-05 17:46 | 48.68883 | 9.19359 | 1288 ft | 0 kts | 345° |
| 2026-05-05 18:00 | 48.68877 | 9.19362 | 1285 ft | 4 kts | 347° |
| 2026-05-05 18:00 | 48.68851 | 9.19367 | 1288 ft | 4 kts | 4° |
| 2026-05-05 18:00 | 48.68825 | 9.19359 | 1290 ft | 4 kts | 26° |
| 2026-05-05 18:00 | 48.68804 | 9.19337 | 1291 ft | 4 kts | 51° |
| 2026-05-05 18:01 | 48.68791 | 9.19305 | 1290 ft | 2 kts | 74° |
| 2026-05-05 18:01 | 48.68791 | 9.19303 | 1290 ft | 0 kts | 75° |
| 2026-05-05 18:04 | 48.68791 | 9.19304 | 1290 ft | 0 kts | 75° |
| 2026-05-05 18:04 | 48.68799 | 9.19346 | 1290 ft | 10 kts | 75° |
| 2026-05-05 18:05 | 48.68821 | 9.19465 | 1288 ft | 13 kts | 75° |
| 2026-05-05 18:05 | 48.68851 | 9.19628 | 1289 ft | 20 kts | 74° |
| 2026-05-05 18:05 | 48.68888 | 9.19830 | 1285 ft | 19 kts | 82° |
| 2026-05-05 18:05 | 48.68850 | 9.19886 | 1285 ft | 9 kts | 163° |
| 2026-05-05 18:06 | 48.68828 | 9.19991 | 1285 ft | 16 kts | 75° |
| 2026-05-05 18:06 | 48.68839 | 9.20048 | 1288 ft | 19 kts | 74° |
| 2026-05-05 18:06 | 48.68913 | 9.20441 | 1286 ft | 24 kts | 74° |
| 2026-05-05 18:06 | 48.68954 | 9.20656 | 1289 ft | 22 kts | 74° |
| 2026-05-05 18:07 | 48.68981 | 9.20797 | 1288 ft | 10 kts | 74° |
| 2026-05-05 18:07 | 48.69011 | 9.20957 | 1288 ft | 14 kts | 73° |
| 2026-05-05 18:07 | 48.69041 | 9.21111 | 1287 ft | 17 kts | 73° |
| 2026-05-05 18:07 | 48.69076 | 9.21294 | 1286 ft | 19 kts | 73° |
| 2026-05-05 18:08 | 48.69117 | 9.21504 | 1285 ft | 22 kts | 74° |
| 2026-05-05 18:08 | 48.69146 | 9.21659 | 1285 ft | 23 kts | 74° |
| 2026-05-05 18:08 | 48.69191 | 9.21901 | 1285 ft | 25 kts | 74° |
| 2026-05-05 18:08 | 48.69240 | 9.22163 | 1288 ft | 27 kts | 75° |
| 2026-05-05 18:09 | 48.69289 | 9.22433 | 1285 ft | 27 kts | 74° |
| 2026-05-05 18:09 | 48.69344 | 9.22712 | 1287 ft | 28 kts | 73° |
| 2026-05-05 18:09 | 48.69401 | 9.23006 | 1285 ft | 30 kts | 74° |
| 2026-05-05 18:09 | 48.69457 | 9.23300 | 1288 ft | 18 kts | 74° |
| 2026-05-05 18:10 | 48.69493 | 9.23492 | 1286 ft | 20 kts | 74° |
| 2026-05-05 18:10 | 48.69534 | 9.23708 | 1285 ft | 22 kts | 74° |
| 2026-05-05 18:10 | 48.69577 | 9.23942 | 1286 ft | 24 kts | 74° |
| 2026-05-05 18:10 | 48.69606 | 9.24151 | 1285 ft | 19 kts | 107° |
| 2026-05-05 18:11 | 48.69575 | 9.24252 | 1289 ft | 9 kts | 119° |
| 2026-05-05 18:11 | 48.69525 | 9.24304 | 1286 ft | 4 kts | 164° |
| 2026-05-05 18:11 | 48.69517 | 9.24307 | 1288 ft | 0 kts | 164° |
| 2026-05-05 18:12 | 48.69499 | 9.24315 | 1286 ft | 10 kts | 164° |
| 2026-05-05 18:12 | 48.69407 | 9.24319 | 1286 ft | 15 kts | 204° |
| 2026-05-05 18:12 | 48.69379 | 9.24256 | 1288 ft | 4 kts | 254° |
| 2026-05-05 18:12 | 48.69379 | 9.24255 | 1288 ft | 0 kts | 254° |
| 2026-05-05 18:13 | 48.69376 | 9.24240 | 1287 ft | 10 kts | 254° |
| 2026-05-05 18:13 | 48.69285 | 9.23756 | 1288 ft | 82 kts | 253° |
| 2026-05-05 18:13 | 48.69075 | 9.22651 | 1289 ft | 135 kts | 254° |
| 2026-05-05 18:13 | 48.68773 | 9.21073 | 1345 ft | 173 kts | 253° |
| 2026-05-05 18:14 | 48.68453 | 9.19311 | 1975 ft | 174 kts | 255° |
| 2026-05-05 18:14 | 48.68138 | 9.17529 | 2689 ft | 176 kts | 255° |
| 2026-05-05 18:14 | 48.67822 | 9.15742 | 3391 ft | 174 kts | 254° |
| 2026-05-05 18:14 | 48.67512 | 9.13984 | 4006 ft | 175 kts | 253° |
| 2026-05-05 18:15 | 48.67176 | 9.12107 | 4378 ft | 196 kts | 254° |
| 2026-05-05 18:15 | 48.67070 | 9.09925 | 4793 ft | 223 kts | 278° |
| 2026-05-05 18:15 | 48.67751 | 9.07724 | 4990 ft | 238 kts | 302° |
| 2026-05-05 18:15 | 48.69069 | 9.06163 | 4999 ft | 252 kts | 335° |
| 2026-05-05 18:16 | 48.70888 | 9.05606 | 5401 ft | 276 kts | 344° |
| 2026-05-05 18:16 | 48.72766 | 9.04913 | 6232 ft | 280 kts | 340° |
| 2026-05-05 18:16 | 48.74685 | 9.04351 | 7131 ft | 285 kts | 354° |
| 2026-05-05 18:16 | 48.76678 | 9.04768 | 7981 ft | 296 kts | 17° |
| 2026-05-05 18:17 | 48.78465 | 9.06316 | 8718 ft | 307 kts | 43° |
| 2026-05-05 18:17 | 48.79771 | 9.08907 | 9480 ft | 313 kts | 57° |
| 2026-05-05 18:17 | 48.80991 | 9.11682 | 10144 ft | 322 kts | 56° |
| 2026-05-05 18:17 | 48.82302 | 9.14592 | 10373 ft | 345 kts | 55° |
| 2026-05-05 18:18 | 48.83699 | 9.17639 | 10891 ft | 355 kts | 55° |
| 2026-05-05 18:18 | 48.85130 | 9.20725 | 11593 ft | 359 kts | 55° |
| 2026-05-05 18:18 | 48.86581 | 9.23841 | 12288 ft | 364 kts | 54° |
| 2026-05-05 18:18 | 48.88062 | 9.26994 | 12999 ft | 368 kts | 52° |
| 2026-05-05 18:19 | 48.89845 | 9.29801 | 13694 ft | 370 kts | 38° |
| 2026-05-05 18:19 | 48.92040 | 9.31827 | 14308 ft | 371 kts | 20° |
| 2026-05-05 18:19 | 48.94528 | 9.32778 | 14927 ft | 370 kts | 5° |
| 2026-05-05 18:19 | 48.97095 | 9.33260 | 15573 ft | 372 kts | 5° |
| 2026-05-05 18:20 | 48.99680 | 9.33719 | 16178 ft | 375 kts | 5° |
| 2026-05-05 18:20 | 49.02286 | 9.34168 | 16787 ft | 379 kts | 5° |
| 2026-05-05 18:20 | 49.04914 | 9.34618 | 17392 ft | 382 kts | 5° |
| 2026-05-05 18:20 | 49.07570 | 9.35077 | 17994 ft | 386 kts | 5° |
| 2026-05-05 18:21 | 49.10258 | 9.35549 | 18540 ft | 389 kts | 6° |
| 2026-05-05 18:21 | 49.12956 | 9.36031 | 19075 ft | 392 kts | 6° |
| 2026-05-05 18:21 | 49.15676 | 9.36520 | 19628 ft | 395 kts | 6° |
| 2026-05-05 18:21 | 49.18415 | 9.37016 | 20182 ft | 398 kts | 6° |
| 2026-05-05 18:22 | 49.21173 | 9.37515 | 20709 ft | 400 kts | 6° |
| 2026-05-05 18:22 | 49.23913 | 9.38009 | 21204 ft | 403 kts | 6° |
| 2026-05-05 18:22 | 49.26708 | 9.38508 | 21698 ft | 406 kts | 6° |
| 2026-05-05 18:22 | 49.29521 | 9.39008 | 22186 ft | 409 kts | 6° |
| 2026-05-05 18:23 | 49.32359 | 9.39514 | 22685 ft | 412 kts | 6° |
| 2026-05-05 18:23 | 49.35220 | 9.40026 | 23187 ft | 415 kts | 6° |
| 2026-05-05 18:23 | 49.38096 | 9.40546 | 23643 ft | 417 kts | 7° |
| 2026-05-05 18:23 | 49.40986 | 9.41071 | 24069 ft | 419 kts | 7° |
| 2026-05-05 18:24 | 49.43890 | 9.41596 | 24484 ft | 421 kts | 7° |
| 2026-05-05 18:24 | 49.46818 | 9.42127 | 24909 ft | 424 kts | 7° |
| 2026-05-05 18:24 | 49.49763 | 9.42658 | 25314 ft | 426 kts | 7° |
| 2026-05-05 18:24 | 49.52714 | 9.43191 | 25713 ft | 429 kts | 8° |
| 2026-05-05 18:25 | 49.55687 | 9.43730 | 26113 ft | 431 kts | 8° |
| 2026-05-05 18:25 | 49.57667 | 9.44090 | 26379 ft | 433 kts | 8° |
| 2026-05-05 18:25 | 49.61636 | 9.44811 | 26889 ft | 435 kts | 8° |
| 2026-05-05 18:25 | 49.64656 | 9.45363 | 27265 ft | 438 kts | 8° |
| 2026-05-05 18:26 | 49.67689 | 9.45920 | 27636 ft | 440 kts | 8° |
| 2026-05-05 18:26 | 49.70749 | 9.46484 | 28012 ft | 443 kts | 8° |
| 2026-05-05 18:26 | 49.73818 | 9.47044 | 28384 ft | 445 kts | 8° |
| 2026-05-05 18:26 | 49.76900 | 9.47604 | 28754 ft | 448 kts | 8° |
| 2026-05-05 18:27 | 49.80009 | 9.48168 | 29118 ft | 450 kts | 8° |
| 2026-05-05 18:27 | 49.83132 | 9.48735 | 29475 ft | 453 kts | 9° |
| 2026-05-05 18:27 | 49.86273 | 9.49311 | 29837 ft | 456 kts | 9° |
| 2026-05-05 18:27 | 49.89436 | 9.49896 | 30158 ft | 458 kts | 9° |
| 2026-05-05 18:28 | 49.95810 | 9.51073 | 30745 ft | 464 kts | 9° |
| 2026-05-05 18:28 | 49.99026 | 9.51666 | 31078 ft | 465 kts | 9° |
| 2026-05-05 18:28 | 50.02197 | 9.52252 | 31499 ft | 465 kts | 9° |
| 2026-05-05 18:29 | 50.05408 | 9.52849 | 31880 ft | 465 kts | 9° |
| 2026-05-05 18:29 | 50.08629 | 9.53450 | 32268 ft | 466 kts | 9° |
| 2026-05-05 18:29 | 50.11846 | 9.54053 | 32670 ft | 466 kts | 9° |
| 2026-05-05 18:29 | 50.15070 | 9.54654 | 33068 ft | 466 kts | 9° |
| 2026-05-05 18:30 | 50.18299 | 9.55256 | 33477 ft | 467 kts | 9° |
| 2026-05-05 18:30 | 50.21529 | 9.55856 | 33770 ft | 468 kts | 9° |
| 2026-05-05 18:30 | 50.27996 | 9.57055 | 33822 ft | 468 kts | 9° |
| 2026-05-05 18:31 | 50.34478 | 9.58269 | 33819 ft | 469 kts | 9° |
| 2026-05-05 18:31 | 50.40968 | 9.59486 | 33816 ft | 469 kts | 9° |
| 2026-05-05 18:32 | 50.47452 | 9.60712 | 33815 ft | 469 kts | 9° |
| 2026-05-05 18:32 | 50.53896 | 9.61934 | 33813 ft | 470 kts | 8° |
| 2026-05-05 18:33 | 50.60384 | 9.63166 | 33810 ft | 470 kts | 8° |
| 2026-05-05 18:33 | 50.66885 | 9.64399 | 33807 ft | 470 kts | 8° |
| 2026-05-05 18:34 | 50.73373 | 9.65634 | 33808 ft | 470 kts | 8° |
| 2026-05-05 18:34 | 50.79864 | 9.66872 | 33807 ft | 470 kts | 8° |
| 2026-05-05 18:35 | 50.86363 | 9.68116 | 33805 ft | 470 kts | 8° |
| 2026-05-05 18:35 | 50.92813 | 9.69361 | 33805 ft | 470 kts | 8° |
| 2026-05-05 18:36 | 50.99349 | 9.70620 | 33804 ft | 470 kts | 8° |
| 2026-05-05 18:36 | 51.05852 | 9.71872 | 33805 ft | 470 kts | 8° |
| 2026-05-05 18:37 | 51.12297 | 9.73122 | 33806 ft | 470 kts | 8° |
| 2026-05-05 18:37 | 51.18800 | 9.74387 | 33806 ft | 472 kts | 7° |
| 2026-05-05 18:38 | 51.25339 | 9.75658 | 33803 ft | 474 kts | 7° |
| 2026-05-05 18:38 | 51.31895 | 9.76940 | 33807 ft | 475 kts | 7° |
| 2026-05-05 18:39 | 51.38460 | 9.78222 | 33809 ft | 475 kts | 7° |
| 2026-05-05 18:39 | 51.44994 | 9.79503 | 33812 ft | 476 kts | 7° |
| 2026-05-05 18:40 | 51.51572 | 9.80804 | 33813 ft | 477 kts | 7° |
| 2026-05-05 18:40 | 51.58169 | 9.82110 | 33814 ft | 477 kts | 7° |
| 2026-05-05 18:41 | 51.64745 | 9.83411 | 33692 ft | 472 kts | 6° |
| 2026-05-05 18:41 | 51.67989 | 9.84054 | 33413 ft | 464 kts | 6° |
| 2026-05-05 18:41 | 51.71165 | 9.84692 | 33144 ft | 458 kts | 6° |
| 2026-05-05 18:42 | 51.74314 | 9.85327 | 32871 ft | 454 kts | 6° |
| 2026-05-05 18:42 | 51.77444 | 9.85957 | 32601 ft | 452 kts | 6° |
| 2026-05-05 18:42 | 51.80555 | 9.86578 | 32337 ft | 450 kts | 6° |
| 2026-05-05 18:42 | 51.83658 | 9.87193 | 32074 ft | 447 kts | 6° |
| 2026-05-05 18:43 | 51.86740 | 9.87806 | 31814 ft | 445 kts | 6° |
| 2026-05-05 18:43 | 51.89811 | 9.88421 | 31563 ft | 443 kts | 5° |
| 2026-05-05 18:43 | 51.92822 | 9.89025 | 31309 ft | 441 kts | 5° |
| 2026-05-05 18:43 | 51.95859 | 9.89633 | 31054 ft | 439 kts | 5° |
| 2026-05-05 18:44 | 51.98881 | 9.90240 | 30810 ft | 436 kts | 5° |
| 2026-05-05 18:44 | 52.01892 | 9.90850 | 30559 ft | 435 kts | 6° |
| 2026-05-05 18:44 | 52.04883 | 9.91456 | 30313 ft | 433 kts | 5° |
| 2026-05-05 18:44 | 52.07863 | 9.92057 | 30070 ft | 431 kts | 6° |
| 2026-05-05 18:45 | 52.10834 | 9.92658 | 29816 ft | 429 kts | 5° |
| 2026-05-05 18:45 | 52.13786 | 9.93245 | 29531 ft | 426 kts | 4° |
| 2026-05-05 18:45 | 52.16724 | 9.93768 | 29262 ft | 424 kts | 4° |
| 2026-05-05 18:45 | 52.19654 | 9.94240 | 28977 ft | 422 kts | 3° |
| 2026-05-05 18:46 | 52.22572 | 9.94682 | 28701 ft | 420 kts | 3° |
| 2026-05-05 18:46 | 52.25469 | 9.95113 | 28382 ft | 417 kts | 3° |
| 2026-05-05 18:46 | 52.28353 | 9.95552 | 27982 ft | 414 kts | 3° |
| 2026-05-05 18:46 | 52.31207 | 9.95998 | 27588 ft | 411 kts | 3° |
| 2026-05-05 18:47 | 52.34013 | 9.96445 | 27194 ft | 408 kts | 3° |
| 2026-05-05 18:47 | 52.36824 | 9.96895 | 26817 ft | 404 kts | 3° |
| 2026-05-05 18:47 | 52.39613 | 9.97343 | 26427 ft | 401 kts | 3° |
| 2026-05-05 18:47 | 52.42385 | 9.97792 | 26038 ft | 399 kts | 3° |
| 2026-05-05 18:48 | 52.45132 | 9.98240 | 25660 ft | 396 kts | 3° |
| 2026-05-05 18:48 | 52.47864 | 9.98686 | 25260 ft | 393 kts | 3° |
| 2026-05-05 18:48 | 52.50625 | 9.99131 | 24429 ft | 404 kts | 4° |
| 2026-05-05 18:48 | 52.53431 | 9.99584 | 23914 ft | 404 kts | 4° |
| 2026-05-05 18:49 | 52.56229 | 10.00038 | 23476 ft | 402 kts | 4° |
| 2026-05-05 18:49 | 52.59011 | 10.00491 | 23008 ft | 401 kts | 4° |
| 2026-05-05 18:49 | 52.61793 | 10.00945 | 22303 ft | 403 kts | 4° |
| 2026-05-05 18:49 | 52.64599 | 10.01402 | 21608 ft | 404 kts | 4° |
| 2026-05-05 18:50 | 52.67374 | 10.01855 | 20934 ft | 398 kts | 4° |
| 2026-05-05 18:50 | 52.70113 | 10.02303 | 20272 ft | 392 kts | 4° |
| 2026-05-05 18:50 | 52.72776 | 10.02738 | 19646 ft | 387 kts | 5° |
| 2026-05-05 18:50 | 52.75433 | 10.03170 | 19038 ft | 381 kts | 5° |
| 2026-05-05 18:51 | 52.78055 | 10.03596 | 18426 ft | 376 kts | 5° |
| 2026-05-05 18:51 | 52.80640 | 10.04016 | 17764 ft | 371 kts | 5° |
| 2026-05-05 18:51 | 52.83188 | 10.04431 | 17079 ft | 366 kts | 5° |
| 2026-05-05 18:51 | 52.85742 | 10.04848 | 16395 ft | 362 kts | 5° |
| 2026-05-05 18:52 | 52.88202 | 10.05250 | 15743 ft | 357 kts | 5° |
| 2026-05-05 18:52 | 52.90667 | 10.05654 | 15095 ft | 353 kts | 4° |
| 2026-05-05 18:52 | 52.93101 | 10.06055 | 14462 ft | 350 kts | 5° |
| 2026-05-05 18:52 | 52.95510 | 10.06457 | 13841 ft | 346 kts | 5° |
| 2026-05-05 18:53 | 52.97897 | 10.06858 | 13165 ft | 343 kts | 5° |
| 2026-05-05 18:53 | 53.00264 | 10.07254 | 12482 ft | 340 kts | 4° |
| 2026-05-05 18:53 | 53.02604 | 10.07641 | 11815 ft | 337 kts | 5° |
| 2026-05-05 18:53 | 53.04932 | 10.08023 | 11175 ft | 334 kts | 4° |
| 2026-05-05 18:54 | 53.07208 | 10.08400 | 10937 ft | 325 kts | 5° |
| 2026-05-05 18:54 | 53.09448 | 10.08771 | 10885 ft | 323 kts | 4° |
| 2026-05-05 18:54 | 53.11687 | 10.09144 | 10894 ft | 324 kts | 4° |
| 2026-05-05 18:54 | 53.13929 | 10.09515 | 10900 ft | 324 kts | 4° |
| 2026-05-05 18:55 | 53.15417 | 10.09761 | 10899 ft | 324 kts | 4° |
| 2026-05-05 18:55 | 53.17653 | 10.09883 | 10817 ft | 319 kts | 356° |
| 2026-05-05 18:55 | 53.19834 | 10.09667 | 10681 ft | 308 kts | 354° |
| 2026-05-05 18:55 | 53.22603 | 10.09262 | 10429 ft | 296 kts | 345° |
| 2026-05-05 18:56 | 53.23888 | 10.08456 | 10253 ft | 290 kts | 327° |
| 2026-05-05 18:56 | 53.25464 | 10.06406 | 9920 ft | 286 kts | 315° |
| 2026-05-05 18:56 | 53.26920 | 10.04140 | 9431 ft | 286 kts | 315° |
| 2026-05-05 18:56 | 53.28352 | 10.01839 | 8916 ft | 284 kts | 314° |
| 2026-05-05 18:57 | 53.29764 | 9.99545 | 8394 ft | 282 kts | 314° |
| 2026-05-05 18:57 | 53.31163 | 9.97265 | 7883 ft | 280 kts | 315° |
| 2026-05-05 18:57 | 53.32523 | 9.95029 | 7388 ft | 275 kts | 314° |
| 2026-05-05 18:57 | 53.33868 | 9.92794 | 6887 ft | 270 kts | 314° |
| 2026-05-05 18:58 | 53.35181 | 9.90582 | 6403 ft | 266 kts | 314° |
| 2026-05-05 18:58 | 53.36467 | 9.88385 | 5886 ft | 262 kts | 314° |
| 2026-05-05 18:58 | 53.37729 | 9.86193 | 5355 ft | 260 kts | 314° |
| 2026-05-05 18:58 | 53.38978 | 9.84005 | 4819 ft | 259 kts | 314° |
| 2026-05-05 18:59 | 53.40207 | 9.81821 | 4281 ft | 257 kts | 315° |
| 2026-05-05 18:59 | 53.41400 | 9.79641 | 4038 ft | 249 kts | 314° |
| 2026-05-05 18:59 | 53.42539 | 9.77554 | 4018 ft | 237 kts | 315° |
| 2026-05-05 18:59 | 53.43647 | 9.75528 | 4025 ft | 235 kts | 315° |
| 2026-05-05 19:00 | 53.44745 | 9.73490 | 4032 ft | 236 kts | 314° |
| 2026-05-05 19:00 | 53.45848 | 9.71448 | 4034 ft | 235 kts | 316° |
| 2026-05-05 19:00 | 53.47181 | 9.69973 | 4034 ft | 230 kts | 346° |
| 2026-05-05 19:00 | 53.48723 | 9.69994 | 3893 ft | 226 kts | 23° |
| 2026-05-05 19:01 | 53.49881 | 9.71660 | 3595 ft | 222 kts | 60° |
| 2026-05-05 19:01 | 53.50645 | 9.73896 | 3297 ft | 220 kts | 54° |
| 2026-05-05 19:01 | 53.51597 | 9.75852 | 2985 ft | 213 kts | 50° |
| 2026-05-05 19:01 | 53.52584 | 9.77790 | 2643 ft | 221 kts | 50° |
| 2026-05-05 19:02 | 53.53545 | 9.79706 | 2503 ft | 204 kts | 50° |
| 2026-05-05 19:02 | 53.54415 | 9.81448 | 2375 ft | 184 kts | 50° |
| 2026-05-05 19:02 | 53.55191 | 9.83008 | 2185 ft | 166 kts | 50° |
| 2026-05-05 19:02 | 53.55923 | 9.84477 | 1947 ft | 161 kts | 51° |
| 2026-05-05 19:03 | 53.56637 | 9.85915 | 1733 ft | 159 kts | 51° |
| 2026-05-05 19:03 | 53.57365 | 9.87379 | 1534 ft | 164 kts | 51° |
| 2026-05-05 19:03 | 53.58093 | 9.88844 | 1288 ft | 163 kts | 51° |
| 2026-05-05 19:03 | 53.58819 | 9.90306 | 1045 ft | 166 kts | 51° |
| 2026-05-05 19:04 | 53.59563 | 9.91808 | 822 ft | 167 kts | 49° |
| 2026-05-05 19:04 | 53.60318 | 9.93323 | 534 ft | 169 kts | 50° |
| 2026-05-05 19:04 | 53.61071 | 9.94850 | 316 ft | 168 kts | 51° |
| 2026-05-05 19:04 | 53.61766 | 9.96243 | 102 ft | 142 kts | 51° |
| 2026-05-05 19:05 | 53.62327 | 9.97400 | 45 ft | 112 kts | 51° |
| 2026-05-05 19:05 | 53.62727 | 9.98202 | 45 ft | 70 kts | 50° |
| 2026-05-05 19:05 | 53.63020 | 9.98792 | 43 ft | 65 kts | 51° |
| 2026-05-05 19:05 | 53.63251 | 9.99262 | 48 ft | 42 kts | 53° |
| 2026-05-05 19:06 | 53.63287 | 9.99554 | 44 ft | 10 kts | 99° |
| 2026-05-05 19:06 | 53.63280 | 9.99629 | 45 ft | 0 kts | 99° |
| 2026-05-05 19:07 | 53.63279 | 9.99643 | 45 ft | 5 kts | 99° |
| 2026-05-05 19:07 | 53.63275 | 9.99740 | 45 ft | 10 kts | 70° |
| 2026-05-05 19:07 | 53.63348 | 9.99903 | 45 ft | 22 kts | 50° |
| 2026-05-05 19:07 | 53.63427 | 10.00096 | 46 ft | 15 kts | 89° |
| 2026-05-05 19:08 | 53.63355 | 10.00231 | 43 ft | 18 kts | 176° |
| 2026-05-05 19:08 | 53.63229 | 10.00250 | 44 ft | 18 kts | 155° |
| 2026-05-05 19:08 | 53.63230 | 10.00329 | 43 ft | 8 kts | 78° |
| 2026-05-05 19:08 | 53.63236 | 10.00382 | 46 ft | 0 kts | 79° |